< < Back
Terminal Aerodrome Forecast


Current Version              Previous Versions:   1  2  3  4  5  6  7  8  9  

Terminal Aerodrome Forecast

753
FTUS42 KGSP 271700
TAFHKY
TAF
KHKY 271726Z 2718/2818 35003KT P6SM SCT250=



Latest METAR

983
SAUS70 KWBC 281100 RRE
MTRHKY
METAR KHKY 281053Z 00000KT 10SM CLR 18/16 A3005 RMK AO2 SLP152
T01780156


USA.gov is the U.S. government's official web portal to all federal, state and local government web resources and services.